sensor_id;sensor_type;location;lat;lon;timestamp;temperature;humidity
3005;DHT22;1512;51.486;6.610;2023-02-22T00:02:35;8.00;99.90
3005;DHT22;1512;51.486;6.610;2023-02-22T00:06:45;8.00;99.90
3005;DHT22;1512;51.486;6.610;2023-02-22T00:10:58;8.00;99.90
3005;DHT22;1512;51.486;6.610;2023-02-22T00:15:08;7.90;99.90
3005;DHT22;1512;51.486;6.610;2023-02-22T00:19:19;7.90;99.90
3005;DHT22;1512;51.486;6.610;2023-02-22T00:23:29;8.00;99.90
3005;DHT22;1512;51.486;6.610;2023-02-22T00:27:38;8.00;99.90
3005;DHT22;1512;51.486;6.610;2023-02-22T00:31:47;8.00;99.90
3005;DHT22;1512;51.486;6.610;2023-02-22T00:35:56;8.00;99.90
3005;DHT22;1512;51.486;6.610;2023-02-22T00:40:05;7.90;99.90
3005;DHT22;1512;51.486;6.610;2023-02-22T00:44:14;7.90;99.90
3005;DHT22;1512;51.486;6.610;2023-02-22T00:48:23;7.90;99.90
3005;DHT22;1512;51.486;6.610;2023-02-22T00:52:32;7.90;99.90
3005;DHT22;1512;51.486;6.610;2023-02-22T00:56:42;7.80;99.90
3005;DHT22;1512;51.486;6.610;2023-02-22T01:00:51;7.90;1.00
3005;DHT22;1512;51.486;6.610;2023-02-22T01:04:59;7.80;1.00
3005;DHT22;1512;51.486;6.610;2023-02-22T01:09:09;7.90;1.00
3005;DHT22;1512;51.486;6.610;2023-02-22T01:13:18;7.80;1.00
3005;DHT22;1512;51.486;6.610;2023-02-22T01:17:26;7.80;1.00
3005;DHT22;1512;51.486;6.610;2023-02-22T01:21:35;7.80;1.00
3005;DHT22;1512;51.486;6.610;2023-02-22T01:25:44;7.80;1.00
3005;DHT22;1512;51.486;6.610;2023-02-22T01:29:53;7.70;1.00
3005;DHT22;1512;51.486;6.610;2023-02-22T01:34:01;7.80;1.00
3005;DHT22;1512;51.486;6.610;2023-02-22T01:38:10;7.70;1.00
3005;DHT22;1512;51.486;6.610;2023-02-22T01:42:20;7.80;1.00
3005;DHT22;1512;51.486;6.610;2023-02-22T01:46:30;7.80;1.00
3005;DHT22;1512;51.486;6.610;2023-02-22T01:50:42;7.80;1.00
3005;DHT22;1512;51.486;6.610;2023-02-22T01:54:54;7.80;1.00
3005;DHT22;1512;51.486;6.610;2023-02-22T01:59:05;7.80;1.00
3005;DHT22;1512;51.486;6.610;2023-02-22T02:03:22;7.80;1.00
3005;DHT22;1512;51.486;6.610;2023-02-22T02:07:35;7.80;1.00
3005;DHT22;1512;51.486;6.610;2023-02-22T02:11:45;7.90;1.00
3005;DHT22;1512;51.486;6.610;2023-02-22T02:15:54;7.90;1.00
3005;DHT22;1512;51.486;6.610;2023-02-22T02:20:07;7.80;1.00
3005;DHT22;1512;51.486;6.610;2023-02-22T02:33:43;7.80;1.00
3005;DHT22;1512;51.486;6.610;2023-02-22T02:42:13;7.80;1.00
3005;DHT22;1512;51.486;6.610;2023-02-22T02:46:35;7.70;1.00
3005;DHT22;1512;51.486;6.610;2023-02-22T02:50:46;7.70;1.00
3005;DHT22;1512;51.486;6.610;2023-02-22T02:54:56;7.70;1.00
3005;DHT22;1512;51.486;6.610;2023-02-22T02:59:27;7.70;1.00
3005;DHT22;1512;51.486;6.610;2023-02-22T03:03:54;7.70;1.00
3005;DHT22;1512;51.486;6.610;2023-02-22T03:17:00;7.70;1.00
3005;DHT22;1512;51.486;6.610;2023-02-22T03:21:20;7.60;1.00
3005;DHT22;1512;51.486;6.610;2023-02-22T03:25:45;7.60;1.00
3005;DHT22;1512;51.486;6.610;2023-02-22T03:29:56;7.60;1.00
3005;DHT22;1512;51.486;6.610;2023-02-22T03:34:32;7.60;1.00
3005;DHT22;1512;51.486;6.610;2023-02-22T03:38:36;7.60;1.00
3005;DHT22;1512;51.486;6.610;2023-02-22T03:42:49;7.60;1.00
3005;DHT22;1512;51.486;6.610;2023-02-22T03:47:00;7.70;1.00
3005;DHT22;1512;51.486;6.610;2023-02-22T03:51:12;7.70;1.00
3005;DHT22;1512;51.486;6.610;2023-02-22T03:55:24;7.70;1.00
3005;DHT22;1512;51.486;6.610;2023-02-22T03:59:34;7.70;1.00
3005;DHT22;1512;51.486;6.610;2023-02-22T04:12:28;7.70;1.00
3005;DHT22;1512;51.486;6.610;2023-02-22T04:16:37;7.70;1.00
3005;DHT22;1512;51.486;6.610;2023-02-22T04:20:46;7.70;1.00
3005;DHT22;1512;51.486;6.610;2023-02-22T04:25:16;7.70;1.00
3005;DHT22;1512;51.486;6.610;2023-02-22T04:29:25;7.70;1.00
3005;DHT22;1512;51.486;6.610;2023-02-22T04:33:34;7.70;1.00
3005;DHT22;1512;51.486;6.610;2023-02-22T04:37:43;7.60;1.00
3005;DHT22;1512;51.486;6.610;2023-02-22T04:41:51;7.60;1.00
3005;DHT22;1512;51.486;6.610;2023-02-22T04:46:00;7.60;1.00
3005;DHT22;1512;51.486;6.610;2023-02-22T04:50:11;7.60;1.00
3005;DHT22;1512;51.486;6.610;2023-02-22T04:54:19;7.60;1.00
3005;DHT22;1512;51.486;6.610;2023-02-22T04:58:28;7.60;1.00
3005;DHT22;1512;51.486;6.610;2023-02-22T05:02:38;7.50;1.00
3005;DHT22;1512;51.486;6.610;2023-02-22T05:06:47;7.60;1.00
3005;DHT22;1512;51.486;6.610;2023-02-22T05:10:56;7.50;1.00
3005;DHT22;1512;51.486;6.610;2023-02-22T05:15:06;7.50;1.00
3005;DHT22;1512;51.486;6.610;2023-02-22T05:19:15;7.40;1.00
3005;DHT22;1512;51.486;6.610;2023-02-22T05:23:24;7.30;1.00
3005;DHT22;1512;51.486;6.610;2023-02-22T05:27:32;7.40;1.00
3005;DHT22;1512;51.486;6.610;2023-02-22T05:31:41;7.40;1.00
3005;DHT22;1512;51.486;6.610;2023-02-22T05:35:49;7.30;1.00
3005;DHT22;1512;51.486;6.610;2023-02-22T05:39:58;7.30;1.00
3005;DHT22;1512;51.486;6.610;2023-02-22T05:44:07;7.30;1.00
3005;DHT22;1512;51.486;6.610;2023-02-22T05:48:15;7.30;1.00
3005;DHT22;1512;51.486;6.610;2023-02-22T05:52:24;7.30;1.00
3005;DHT22;1512;51.486;6.610;2023-02-22T05:56:33;7.30;1.00
3005;DHT22;1512;51.486;6.610;2023-02-22T06:00:43;7.30;1.00
3005;DHT22;1512;51.486;6.610;2023-02-22T06:04:51;7.30;1.00
3005;DHT22;1512;51.486;6.610;2023-02-22T06:09:00;7.20;1.00
3005;DHT22;1512;51.486;6.610;2023-02-22T06:13:09;7.30;1.00
3005;DHT22;1512;51.486;6.610;2023-02-22T06:17:17;7.30;1.00
3005;DHT22;1512;51.486;6.610;2023-02-22T06:21:50;7.30;1.00
3005;DHT22;1512;51.486;6.610;2023-02-22T06:25:58;7.20;1.00
3005;DHT22;1512;51.486;6.610;2023-02-22T06:30:09;7.20;1.00
3005;DHT22;1512;51.486;6.610;2023-02-22T06:34:21;7.30;1.00
3005;DHT22;1512;51.486;6.610;2023-02-22T06:38:29;7.30;1.00
3005;DHT22;1512;51.486;6.610;2023-02-22T06:42:39;7.30;1.00
3005;DHT22;1512;51.486;6.610;2023-02-22T06:46:48;7.30;1.00
3005;DHT22;1512;51.486;6.610;2023-02-22T06:50:57;7.30;1.00
3005;DHT22;1512;51.486;6.610;2023-02-22T06:55:06;7.30;1.00
3005;DHT22;1512;51.486;6.610;2023-02-22T06:59:15;7.30;1.00
3005;DHT22;1512;51.486;6.610;2023-02-22T07:03:26;7.30;1.00
3005;DHT22;1512;51.486;6.610;2023-02-22T07:07:40;7.30;1.00
3005;DHT22;1512;51.486;6.610;2023-02-22T07:11:49;7.30;1.00
3005;DHT22;1512;51.486;6.610;2023-02-22T07:15:57;7.30;1.00
3005;DHT22;1512;51.486;6.610;2023-02-22T07:24:37;7.30;1.00
3005;DHT22;1512;51.486;6.610;2023-02-22T07:28:49;7.40;1.00
3005;DHT22;1512;51.486;6.610;2023-02-22T07:32:59;7.40;1.00
3005;DHT22;1512;51.486;6.610;2023-02-22T07:37:08;7.40;1.00
3005;DHT22;1512;51.486;6.610;2023-02-22T07:41:17;7.40;1.00
3005;DHT22;1512;51.486;6.610;2023-02-22T07:45:31;7.40;1.00
3005;DHT22;1512;51.486;6.610;2023-02-22T07:49:40;7.40;1.00
3005;DHT22;1512;51.486;6.610;2023-02-22T07:53:49;7.50;1.00
3005;DHT22;1512;51.486;6.610;2023-02-22T07:58:00;7.50;1.00
3005;DHT22;1512;51.486;6.610;2023-02-22T08:02:14;7.60;1.00
3005;DHT22;1512;51.486;6.610;2023-02-22T08:06:21;7.60;1.00
3005;DHT22;1512;51.486;6.610;2023-02-22T08:10:32;7.70;1.00
3005;DHT22;1512;51.486;6.610;2023-02-22T08:14:43;7.70;1.00
3005;DHT22;1512;51.486;6.610;2023-02-22T08:18:53;7.80;1.00
3005;DHT22;1512;51.486;6.610;2023-02-22T08:23:03;7.80;1.00
3005;DHT22;1512;51.486;6.610;2023-02-22T08:27:12;7.80;1.00
3005;DHT22;1512;51.486;6.610;2023-02-22T08:31:20;7.80;1.00
3005;DHT22;1512;51.486;6.610;2023-02-22T08:35:30;7.90;1.00
3005;DHT22;1512;51.486;6.610;2023-02-22T08:39:39;7.90;1.00
3005;DHT22;1512;51.486;6.610;2023-02-22T08:43:48;8.00;1.00
3005;DHT22;1512;51.486;6.610;2023-02-22T08:47:57;8.10;1.00
3005;DHT22;1512;51.486;6.610;2023-02-22T08:52:06;8.10;1.00
3005;DHT22;1512;51.486;6.610;2023-02-22T08:56:14;8.20;1.00
3005;DHT22;1512;51.486;6.610;2023-02-22T09:00:23;8.30;1.00
3005;DHT22;1512;51.486;6.610;2023-02-22T09:04:32;8.40;1.00
3005;DHT22;1512;51.486;6.610;2023-02-22T09:09:00;8.50;1.00
3005;DHT22;1512;51.486;6.610;2023-02-22T09:13:28;8.60;99.90
3005;DHT22;1512;51.486;6.610;2023-02-22T09:17:36;8.70;99.90
3005;DHT22;1512;51.486;6.610;2023-02-22T09:26:15;8.90;1.00
3005;DHT22;1512;51.486;6.610;2023-02-22T09:30:35;9.00;1.00
3005;DHT22;1512;51.486;6.610;2023-02-22T09:34:40;9.10;99.90
3005;DHT22;1512;51.486;6.610;2023-02-22T09:38:51;9.20;1.00
3005;DHT22;1512;51.486;6.610;2023-02-22T09:47:44;9.40;96.50
3005;DHT22;1512;51.486;6.610;2023-02-22T09:56:08;9.60;62.50
3005;DHT22;1512;51.486;6.610;2023-02-22T10:00:29;9.70;1.00
3005;DHT22;1512;51.486;6.610;2023-02-22T10:04:46;9.70;1.00
3005;DHT22;1512;51.486;6.610;2023-02-22T10:09:01;9.80;99.90
3005;DHT22;1512;51.486;6.610;2023-02-22T10:26:40;10.30;1.00
3005;DHT22;1512;51.486;6.610;2023-02-22T10:30:52;10.40;1.00
3005;DHT22;1512;51.486;6.610;2023-02-22T10:35:08;10.60;99.90
3005;DHT22;1512;51.486;6.610;2023-02-22T10:39:30;10.70;1.00
3005;DHT22;1512;51.486;6.610;2023-02-22T10:43:33;10.80;69.40
3005;DHT22;1512;51.486;6.610;2023-02-22T10:47:41;11.00;1.00
3005;DHT22;1512;51.486;6.610;2023-02-22T10:52:02;11.10;1.00
3005;DHT22;1512;51.486;6.610;2023-02-22T10:56:17;11.20;1.00
3005;DHT22;1512;51.486;6.610;2023-02-22T11:00:35;11.40;1.00
3005;DHT22;1512;51.486;6.610;2023-02-22T11:04:52;11.60;1.00
3005;DHT22;1512;51.486;6.610;2023-02-22T11:09:04;11.80;99.90
3005;DHT22;1512;51.486;6.610;2023-02-22T11:13:27;11.90;99.90
3005;DHT22;1512;51.486;6.610;2023-02-22T11:17:35;12.00;99.90
3005;DHT22;1512;51.486;6.610;2023-02-22T11:21:45;12.10;99.90
3005;DHT22;1512;51.486;6.610;2023-02-22T11:26:07;12.20;99.90
3005;DHT22;1512;51.486;6.610;2023-02-22T11:30:31;12.30;80.20
3005;DHT22;1512;51.486;6.610;2023-02-22T11:34:42;12.50;95.70
3005;DHT22;1512;51.486;6.610;2023-02-22T11:38:54;12.60;99.90
3005;DHT22;1512;51.486;6.610;2023-02-22T11:43:16;12.60;36.00
3005;DHT22;1512;51.486;6.610;2023-02-22T11:47:25;12.70;83.60
3005;DHT22;1512;51.486;6.610;2023-02-22T11:56:33;13.00;99.90
3005;DHT22;1512;51.486;6.610;2023-02-22T12:09:37;13.20;1.00
3005;DHT22;1512;51.486;6.610;2023-02-22T12:13:56;13.30;1.00
3005;DHT22;1512;51.486;6.610;2023-02-22T12:22:34;13.40;1.00
3005;DHT22;1512;51.486;6.610;2023-02-22T12:26:52;13.50;1.00
3005;DHT22;1512;51.486;6.610;2023-02-22T12:35:35;13.60;1.00
3005;DHT22;1512;51.486;6.610;2023-02-22T12:39:58;13.60;1.00
3005;DHT22;1512;51.486;6.610;2023-02-22T12:44:19;13.60;1.00
3005;DHT22;1512;51.486;6.610;2023-02-22T12:48:52;13.60;1.00
3005;DHT22;1512;51.486;6.610;2023-02-22T12:53:13;13.60;1.00
3005;DHT22;1512;51.486;6.610;2023-02-22T13:01:40;13.70;1.00
3005;DHT22;1512;51.486;6.610;2023-02-22T13:05:54;13.70;1.00
3005;DHT22;1512;51.486;6.610;2023-02-22T13:18:47;13.80;1.00
3005;DHT22;1512;51.486;6.610;2023-02-22T13:23:07;13.80;1.00
3005;DHT22;1512;51.486;6.610;2023-02-22T13:27:23;13.80;1.00
3005;DHT22;1512;51.486;6.610;2023-02-22T13:35:54;13.90;1.00
3005;DHT22;1512;51.486;6.610;2023-02-22T13:40:24;13.90;1.00
3005;DHT22;1512;51.486;6.610;2023-02-22T13:44:52;14.00;1.00
3005;DHT22;1512;51.486;6.610;2023-02-22T13:53:49;14.00;1.00
3005;DHT22;1512;51.486;6.610;2023-02-22T13:58:05;14.00;1.00
3005;DHT22;1512;51.486;6.610;2023-02-22T14:02:32;14.00;1.00
3005;DHT22;1512;51.486;6.610;2023-02-22T14:06:43;13.90;1.00
3005;DHT22;1512;51.486;6.610;2023-02-22T14:10:57;14.00;1.00
3005;DHT22;1512;51.486;6.610;2023-02-22T14:19:42;13.80;1.00
3005;DHT22;1512;51.486;6.610;2023-02-22T14:23:53;13.70;1.00
3005;DHT22;1512;51.486;6.610;2023-02-22T14:32:38;13.70;1.00
3005;DHT22;1512;51.486;6.610;2023-02-22T14:37:03;13.60;1.00
3005;DHT22;1512;51.486;6.610;2023-02-22T14:41:15;13.60;1.00
3005;DHT22;1512;51.486;6.610;2023-02-22T14:45:33;13.60;1.00
3005;DHT22;1512;51.486;6.610;2023-02-22T14:49:44;13.70;1.00
3005;DHT22;1512;51.486;6.610;2023-02-22T14:54:01;13.70;1.00
3005;DHT22;1512;51.486;6.610;2023-02-22T15:02:27;13.80;1.00
3005;DHT22;1512;51.486;6.610;2023-02-22T15:06:39;13.70;1.00
3005;DHT22;1512;51.486;6.610;2023-02-22T15:10:50;13.80;1.00
3005;DHT22;1512;51.486;6.610;2023-02-22T15:15:17;13.70;1.00
3005;DHT22;1512;51.486;6.610;2023-02-22T15:19:30;13.70;1.00
3005;DHT22;1512;51.486;6.610;2023-02-22T15:23:51;13.60;1.00
3005;DHT22;1512;51.486;6.610;2023-02-22T15:28:19;13.70;1.00
3005;DHT22;1512;51.486;6.610;2023-02-22T15:32:38;13.60;1.00
3005;DHT22;1512;51.486;6.610;2023-02-22T15:36:50;13.60;1.00
3005;DHT22;1512;51.486;6.610;2023-02-22T15:41:24;13.50;1.00
3005;DHT22;1512;51.486;6.610;2023-02-22T15:45:34;13.60;1.00
3005;DHT22;1512;51.486;6.610;2023-02-22T15:50:23;13.50;1.00
3005;DHT22;1512;51.486;6.610;2023-02-22T15:54:38;13.40;1.00
3005;DHT22;1512;51.486;6.610;2023-02-22T15:58:47;13.40;1.00
3005;DHT22;1512;51.486;6.610;2023-02-22T16:02:57;13.30;1.00
3005;DHT22;1512;51.486;6.610;2023-02-22T16:07:25;13.20;1.00
3005;DHT22;1512;51.486;6.610;2023-02-22T16:11:38;13.10;1.00
3005;DHT22;1512;51.486;6.610;2023-02-22T16:15:56;13.00;1.00
3005;DHT22;1512;51.486;6.610;2023-02-22T16:25:10;12.90;1.00
3005;DHT22;1512;51.486;6.610;2023-02-22T16:29:07;12.90;1.00
3005;DHT22;1512;51.486;6.610;2023-02-22T16:33:17;12.80;1.00
3005;DHT22;1512;51.486;6.610;2023-02-22T16:37:26;12.80;1.00
3005;DHT22;1512;51.486;6.610;2023-02-22T16:41:58;12.80;1.00
3005;DHT22;1512;51.486;6.610;2023-02-22T16:46:05;12.70;1.00
3005;DHT22;1512;51.486;6.610;2023-02-22T16:50:14;12.70;1.00
3005;DHT22;1512;51.486;6.610;2023-02-22T16:54:27;12.60;1.00
3005;DHT22;1512;51.486;6.610;2023-02-22T16:58:37;12.70;1.00
3005;DHT22;1512;51.486;6.610;2023-02-22T17:02:47;12.50;19.60
3005;DHT22;1512;51.486;6.610;2023-02-22T17:06:55;12.40;33.70
3005;DHT22;1512;51.486;6.610;2023-02-22T17:11:06;12.30;74.70
3005;DHT22;1512;51.486;6.610;2023-02-22T17:15:20;12.30;95.10
3005;DHT22;1512;51.486;6.610;2023-02-22T17:19:30;12.20;99.90
3005;DHT22;1512;51.486;6.610;2023-02-22T17:23:38;12.10;99.90
3005;DHT22;1512;51.486;6.610;2023-02-22T17:27:47;12.10;99.90
3005;DHT22;1512;51.486;6.610;2023-02-22T17:31:56;12.10;99.90
3005;DHT22;1512;51.486;6.610;2023-02-22T17:36:05;12.00;99.90
3005;DHT22;1512;51.486;6.610;2023-02-22T17:40:14;12.00;99.90
3005;DHT22;1512;51.486;6.610;2023-02-22T17:44:24;12.10;99.90
3005;DHT22;1512;51.486;6.610;2023-02-22T17:48:33;12.00;99.90
3005;DHT22;1512;51.486;6.610;2023-02-22T17:52:43;11.90;99.90
3005;DHT22;1512;51.486;6.610;2023-02-22T17:56:52;11.70;99.90
3005;DHT22;1512;51.486;6.610;2023-02-22T18:01:00;11.70;99.90
3005;DHT22;1512;51.486;6.610;2023-02-22T18:05:29;11.60;99.90
3005;DHT22;1512;51.486;6.610;2023-02-22T18:09:39;11.60;99.90
3005;DHT22;1512;51.486;6.610;2023-02-22T18:13:48;11.40;1.00
3005;DHT22;1512;51.486;6.610;2023-02-22T18:18:16;11.50;1.00
3005;DHT22;1512;51.486;6.610;2023-02-22T18:22:28;11.50;1.00
3005;DHT22;1512;51.486;6.610;2023-02-22T18:26:37;11.40;1.00
3005;DHT22;1512;51.486;6.610;2023-02-22T18:30:46;11.40;1.00
3005;DHT22;1512;51.486;6.610;2023-02-22T18:34:57;11.20;1.00
3005;DHT22;1512;51.486;6.610;2023-02-22T18:39:06;11.20;1.00
3005;DHT22;1512;51.486;6.610;2023-02-22T18:43:16;11.20;1.00
3005;DHT22;1512;51.486;6.610;2023-02-22T18:47:44;11.10;20.50
3005;DHT22;1512;51.486;6.610;2023-02-22T18:51:53;11.00;39.30
3005;DHT22;1512;51.486;6.610;2023-02-22T18:56:03;11.00;59.60
3005;DHT22;1512;51.486;6.610;2023-02-22T19:00:15;11.00;99.90
3005;DHT22;1512;51.486;6.610;2023-02-22T19:04:23;11.00;99.90
3005;DHT22;1512;51.486;6.610;2023-02-22T19:08:51;10.90;99.90
3005;DHT22;1512;51.486;6.610;2023-02-22T19:13:00;10.90;99.90
3005;DHT22;1512;51.486;6.610;2023-02-22T19:17:09;10.90;1.00
3005;DHT22;1512;51.486;6.610;2023-02-22T19:21:19;10.80;1.00
3005;DHT22;1512;51.486;6.610;2023-02-22T19:25:28;10.70;41.20
3005;DHT22;1512;51.486;6.610;2023-02-22T19:29:38;10.70;99.90
3005;DHT22;1512;51.486;6.610;2023-02-22T19:33:47;10.70;99.90
3005;DHT22;1512;51.486;6.610;2023-02-22T19:38:18;10.70;1.00
3005;DHT22;1512;51.486;6.610;2023-02-22T19:42:28;10.70;1.00
3005;DHT22;1512;51.486;6.610;2023-02-22T19:46:37;10.70;1.00
3005;DHT22;1512;51.486;6.610;2023-02-22T19:50:46;10.70;1.00
3005;DHT22;1512;51.486;6.610;2023-02-22T19:54:57;10.70;1.00
3005;DHT22;1512;51.486;6.610;2023-02-22T19:59:08;10.60;1.00
3005;DHT22;1512;51.486;6.610;2023-02-22T20:03:19;10.60;1.00
3005;DHT22;1512;51.486;6.610;2023-02-22T20:07:29;10.60;1.00
3005;DHT22;1512;51.486;6.610;2023-02-22T20:11:38;10.60;8.00
3005;DHT22;1512;51.486;6.610;2023-02-22T20:15:47;10.60;99.90
3005;DHT22;1512;51.486;6.610;2023-02-22T20:20:16;10.60;99.90
3005;DHT22;1512;51.486;6.610;2023-02-22T20:24:25;10.60;29.30
3005;DHT22;1512;51.486;6.610;2023-02-22T20:28:34;10.60;20.40
3005;DHT22;1512;51.486;6.610;2023-02-22T20:32:43;10.50;99.90
3005;DHT22;1512;51.486;6.610;2023-02-22T20:36:53;10.50;99.90
3005;DHT22;1512;51.486;6.610;2023-02-22T20:41:04;10.50;1.00
3005;DHT22;1512;51.486;6.610;2023-02-22T20:45:13;10.50;1.00
3005;DHT22;1512;51.486;6.610;2023-02-22T20:49:22;10.50;1.00
3005;DHT22;1512;51.486;6.610;2023-02-22T20:53:32;10.50;5.20
3005;DHT22;1512;51.486;6.610;2023-02-22T20:57:41;10.40;99.90
3005;DHT22;1512;51.486;6.610;2023-02-22T21:01:50;10.40;1.00
3005;DHT22;1512;51.486;6.610;2023-02-22T21:05:59;10.40;1.00
3005;DHT22;1512;51.486;6.610;2023-02-22T21:10:08;10.40;1.00
3005;DHT22;1512;51.486;6.610;2023-02-22T21:14:17;10.40;1.00
3005;DHT22;1512;51.486;6.610;2023-02-22T21:18:26;10.40;1.00
3005;DHT22;1512;51.486;6.610;2023-02-22T21:22:34;10.30;13.90
3005;DHT22;1512;51.486;6.610;2023-02-22T21:26:45;10.30;96.20
3005;DHT22;1512;51.486;6.610;2023-02-22T21:30:53;10.30;99.90
3005;DHT22;1512;51.486;6.610;2023-02-22T21:35:02;10.30;1.00
3005;DHT22;1512;51.486;6.610;2023-02-22T21:39:13;10.30;1.00
3005;DHT22;1512;51.486;6.610;2023-02-22T21:43:25;10.20;1.00
3005;DHT22;1512;51.486;6.610;2023-02-22T21:47:34;10.20;1.00
3005;DHT22;1512;51.486;6.610;2023-02-22T21:51:43;10.20;1.00
3005;DHT22;1512;51.486;6.610;2023-02-22T21:55:52;10.20;1.00
3005;DHT22;1512;51.486;6.610;2023-02-22T22:00:00;10.20;99.90
3005;DHT22;1512;51.486;6.610;2023-02-22T22:04:14;10.20;99.90
3005;DHT22;1512;51.486;6.610;2023-02-22T22:08:25;10.20;99.90
3005;DHT22;1512;51.486;6.610;2023-02-22T22:12:34;10.20;99.90
3005;DHT22;1512;51.486;6.610;2023-02-22T22:16:48;10.20;99.90
3005;DHT22;1512;51.486;6.610;2023-02-22T22:20:57;10.10;99.90
3005;DHT22;1512;51.486;6.610;2023-02-22T22:25:07;10.20;99.90
3005;DHT22;1512;51.486;6.610;2023-02-22T22:29:17;10.20;99.90
3005;DHT22;1512;51.486;6.610;2023-02-22T22:33:26;10.20;99.90
3005;DHT22;1512;51.486;6.610;2023-02-22T22:37:34;10.20;99.90
3005;DHT22;1512;51.486;6.610;2023-02-22T22:41:44;10.20;99.90
3005;DHT22;1512;51.486;6.610;2023-02-22T22:45:52;10.20;99.90
3005;DHT22;1512;51.486;6.610;2023-02-22T22:50:01;10.20;99.90
3005;DHT22;1512;51.486;6.610;2023-02-22T22:54:10;10.20;1.00
3005;DHT22;1512;51.486;6.610;2023-02-22T22:58:18;10.10;1.00
3005;DHT22;1512;51.486;6.610;2023-02-22T23:02:27;10.10;1.00
3005;DHT22;1512;51.486;6.610;2023-02-22T23:06:39;10.10;1.00
3005;DHT22;1512;51.486;6.610;2023-02-22T23:10:48;9.90;1.00
3005;DHT22;1512;51.486;6.610;2023-02-22T23:14:56;10.00;1.00
3005;DHT22;1512;51.486;6.610;2023-02-22T23:19:05;9.80;1.00
3005;DHT22;1512;51.486;6.610;2023-02-22T23:23:17;9.70;1.00
3005;DHT22;1512;51.486;6.610;2023-02-22T23:27:25;9.80;1.00
3005;DHT22;1512;51.486;6.610;2023-02-22T23:31:34;9.80;1.00
3005;DHT22;1512;51.486;6.610;2023-02-22T23:35:47;9.70;1.00
3005;DHT22;1512;51.486;6.610;2023-02-22T23:39:55;9.60;1.00
3005;DHT22;1512;51.486;6.610;2023-02-22T23:44:06;9.60;1.00
3005;DHT22;1512;51.486;6.610;2023-02-22T23:48:15;9.60;1.00
3005;DHT22;1512;51.486;6.610;2023-02-22T23:52:25;9.60;1.00
3005;DHT22;1512;51.486;6.610;2023-02-22T23:56:36;9.70;1.00
